sensor_id;sensor_type;location;lat;lon;timestamp;pressure;altitude;pressure_sealevel;temperature;humidity
12626;BME280;6378;42.684;23.372;2023-08-24T00:01:19;95193.69;;;24.78;100.00
12626;BME280;6378;42.684;23.372;2023-08-24T00:03:45;95187.19;;;24.55;100.00
12626;BME280;6378;42.684;23.372;2023-08-24T00:06:12;95198.38;;;24.48;100.00
12626;BME280;6378;42.684;23.372;2023-08-24T00:08:37;95197.94;;;24.66;100.00
12626;BME280;6378;42.684;23.372;2023-08-24T00:11:03;95190.78;;;24.69;100.00
12626;BME280;6378;42.684;23.372;2023-08-24T00:13:29;95178.16;;;24.71;100.00
12626;BME280;6378;42.684;23.372;2023-08-24T00:15:55;95169.13;;;24.54;100.00
12626;BME280;6378;42.684;23.372;2023-08-24T00:18:21;95188.88;;;24.82;100.00
12626;BME280;6378;42.684;23.372;2023-08-24T00:20:49;95189.94;;;24.72;100.00
12626;BME280;6378;42.684;23.372;2023-08-24T00:23:14;95173.34;;;24.59;100.00
12626;BME280;6378;42.684;23.372;2023-08-24T00:25:40;95184.09;;;24.53;100.00
12626;BME280;6378;42.684;23.372;2023-08-24T00:28:08;95182.41;;;24.43;100.00
12626;BME280;6378;42.684;23.372;2023-08-24T00:30:33;95183.91;;;24.44;100.00
12626;BME280;6378;42.684;23.372;2023-08-24T00:32:59;95183.84;;;24.32;100.00
12626;BME280;6378;42.684;23.372;2023-08-24T00:35:24;95190.97;;;24.29;100.00
12626;BME280;6378;42.684;23.372;2023-08-24T00:37:50;95197.75;;;24.08;100.00
12626;BME280;6378;42.684;23.372;2023-08-24T00:40:16;95193.25;;;23.98;100.00
12626;BME280;6378;42.684;23.372;2023-08-24T00:42:43;95188.22;;;23.77;100.00
12626;BME280;6378;42.684;23.372;2023-08-24T00:45:10;95187.13;;;23.74;100.00
12626;BME280;6378;42.684;23.372;2023-08-24T00:47:37;95185.22;;;23.71;100.00
12626;BME280;6378;42.684;23.372;2023-08-24T00:50:06;95189.38;;;23.80;100.00
12626;BME280;6378;42.684;23.372;2023-08-24T00:52:32;95164.69;;;23.76;100.00
12626;BME280;6378;42.684;23.372;2023-08-24T00:54:59;95190.34;;;23.89;100.00
12626;BME280;6378;42.684;23.372;2023-08-24T00:57:26;95181.34;;;23.69;100.00
12626;BME280;6378;42.684;23.372;2023-08-24T00:59:52;95191.94;;;23.51;100.00
12626;BME280;6378;42.684;23.372;2023-08-24T01:02:17;95197.97;;;23.62;100.00
12626;BME280;6378;42.684;23.372;2023-08-24T01:04:44;95187.94;;;23.55;100.00
12626;BME280;6378;42.684;23.372;2023-08-24T01:07:11;95196.69;;;23.50;100.00
12626;BME280;6378;42.684;23.372;2023-08-24T01:09:38;95188.69;;;23.36;100.00
12626;BME280;6378;42.684;23.372;2023-08-24T01:14:50;95195.44;;;23.31;100.00
12626;BME280;6378;42.684;23.372;2023-08-24T01:17:22;95181.66;;;23.15;100.00
12626;BME280;6378;42.684;23.372;2023-08-24T01:19:48;95188.53;;;23.04;100.00
12626;BME280;6378;42.684;23.372;2023-08-24T01:25:12;95195.03;;;23.33;100.00
12626;BME280;6378;42.684;23.372;2023-08-24T01:27:37;95205.44;;;23.61;100.00
12626;BME280;6378;42.684;23.372;2023-08-24T01:30:05;95192.72;;;23.51;100.00
12626;BME280;6378;42.684;23.372;2023-08-24T01:32:32;95204.94;;;23.27;100.00
12626;BME280;6378;42.684;23.372;2023-08-24T01:34:59;95213.75;;;23.18;100.00
12626;BME280;6378;42.684;23.372;2023-08-24T01:37:25;95194.75;;;23.08;100.00
12626;BME280;6378;42.684;23.372;2023-08-24T01:42:26;95193.44;;;22.73;100.00
12626;BME280;6378;42.684;23.372;2023-08-24T01:44:56;95189.72;;;22.83;100.00
12626;BME280;6378;42.684;23.372;2023-08-24T01:47:24;95193.25;;;23.03;100.00
12626;BME280;6378;42.684;23.372;2023-08-24T01:49:50;95185.00;;;22.83;100.00
12626;BME280;6378;42.684;23.372;2023-08-24T01:52:17;95198.09;;;22.76;100.00
12626;BME280;6378;42.684;23.372;2023-08-24T01:54:43;95186.91;;;22.63;100.00
12626;BME280;6378;42.684;23.372;2023-08-24T01:57:08;95195.97;;;22.60;100.00
12626;BME280;6378;42.684;23.372;2023-08-24T01:59:33;95197.78;;;22.70;100.00
12626;BME280;6378;42.684;23.372;2023-08-24T02:01:59;95199.78;;;22.89;100.00
12626;BME280;6378;42.684;23.372;2023-08-24T02:04:24;95205.41;;;22.82;100.00
12626;BME280;6378;42.684;23.372;2023-08-24T02:06:50;95202.53;;;22.89;100.00
12626;BME280;6378;42.684;23.372;2023-08-24T02:09:15;95203.47;;;23.03;100.00
12626;BME280;6378;42.684;23.372;2023-08-24T02:11:40;95197.38;;;23.15;100.00
12626;BME280;6378;42.684;23.372;2023-08-24T02:14:06;95203.97;;;23.17;100.00
12626;BME280;6378;42.684;23.372;2023-08-24T02:16:31;95197.16;;;22.82;100.00
12626;BME280;6378;42.684;23.372;2023-08-24T02:18:56;95184.00;;;22.74;100.00
12626;BME280;6378;42.684;23.372;2023-08-24T02:21:22;95199.03;;;22.89;100.00
12626;BME280;6378;42.684;23.372;2023-08-24T02:23:47;95166.50;;;22.64;100.00
12626;BME280;6378;42.684;23.372;2023-08-24T02:26:13;95201.69;;;22.93;100.00
12626;BME280;6378;42.684;23.372;2023-08-24T02:28:38;95210.28;;;22.95;100.00
12626;BME280;6378;42.684;23.372;2023-08-24T02:31:04;95206.38;;;22.96;100.00
12626;BME280;6378;42.684;23.372;2023-08-24T02:33:30;95204.59;;;23.05;100.00
12626;BME280;6378;42.684;23.372;2023-08-24T02:35:56;95199.31;;;22.95;100.00
12626;BME280;6378;42.684;23.372;2023-08-24T02:38:23;95195.44;;;22.69;100.00
12626;BME280;6378;42.684;23.372;2023-08-24T02:40:49;95196.56;;;22.48;100.00
12626;BME280;6378;42.684;23.372;2023-08-24T02:43:14;95199.44;;;22.41;100.00
12626;BME280;6378;42.684;23.372;2023-08-24T02:45:40;95194.09;;;22.57;100.00
12626;BME280;6378;42.684;23.372;2023-08-24T02:48:05;95187.81;;;22.80;100.00
12626;BME280;6378;42.684;23.372;2023-08-24T02:50:31;95153.34;;;22.79;100.00
12626;BME280;6378;42.684;23.372;2023-08-24T02:52:56;95181.00;;;23.08;100.00
12626;BME280;6378;42.684;23.372;2023-08-24T02:55:24;95177.56;;;23.04;100.00
12626;BME280;6378;42.684;23.372;2023-08-24T02:57:49;95180.28;;;22.84;100.00
12626;BME280;6378;42.684;23.372;2023-08-24T03:00:16;95166.44;;;22.91;100.00
12626;BME280;6378;42.684;23.372;2023-08-24T03:02:42;95185.31;;;23.09;100.00
12626;BME280;6378;42.684;23.372;2023-08-24T03:05:07;95196.78;;;23.04;100.00
12626;BME280;6378;42.684;23.372;2023-08-24T03:07:33;95199.38;;;22.91;100.00
12626;BME280;6378;42.684;23.372;2023-08-24T03:09:58;95200.75;;;22.79;100.00
12626;BME280;6378;42.684;23.372;2023-08-24T03:12:23;95203.16;;;22.77;100.00
12626;BME280;6378;42.684;23.372;2023-08-24T03:14:52;95196.91;;;22.77;100.00
12626;BME280;6378;42.684;23.372;2023-08-24T03:17:20;95188.22;;;22.55;100.00
12626;BME280;6378;42.684;23.372;2023-08-24T03:19:46;95207.31;;;22.39;100.00
12626;BME280;6378;42.684;23.372;2023-08-24T03:22:11;95209.88;;;22.50;100.00
12626;BME280;6378;42.684;23.372;2023-08-24T03:24:37;95224.19;;;22.61;100.00
12626;BME280;6378;42.684;23.372;2023-08-24T03:27:02;95205.97;;;22.74;100.00
12626;BME280;6378;42.684;23.372;2023-08-24T03:29:28;95210.97;;;22.79;100.00
12626;BME280;6378;42.684;23.372;2023-08-24T03:31:53;95187.66;;;22.67;100.00
12626;BME280;6378;42.684;23.372;2023-08-24T03:34:19;95219.28;;;22.75;100.00
12626;BME280;6378;42.684;23.372;2023-08-24T03:36:46;95217.31;;;22.76;100.00
12626;BME280;6378;42.684;23.372;2023-08-24T03:39:13;95213.47;;;22.46;100.00
12626;BME280;6378;42.684;23.372;2023-08-24T03:41:39;95230.00;;;22.43;100.00
12626;BME280;6378;42.684;23.372;2023-08-24T03:44:04;95245.47;;;22.30;100.00
12626;BME280;6378;42.684;23.372;2023-08-24T03:46:29;95237.91;;;22.37;100.00
12626;BME280;6378;42.684;23.372;2023-08-24T03:48:55;95257.59;;;22.32;100.00
12626;BME280;6378;42.684;23.372;2023-08-24T03:51:20;95249.84;;;22.24;100.00
12626;BME280;6378;42.684;23.372;2023-08-24T03:53:45;95251.28;;;22.09;100.00
12626;BME280;6378;42.684;23.372;2023-08-24T03:56:11;95223.03;;;21.81;100.00
12626;BME280;6378;42.684;23.372;2023-08-24T03:58:36;95245.22;;;21.94;100.00
12626;BME280;6378;42.684;23.372;2023-08-24T04:01:02;95246.78;;;21.91;100.00
12626;BME280;6378;42.684;23.372;2023-08-24T04:03:27;95248.84;;;21.84;100.00
12626;BME280;6378;42.684;23.372;2023-08-24T04:05:53;95251.38;;;22.01;100.00
12626;BME280;6378;42.684;23.372;2023-08-24T04:08:18;95255.66;;;22.02;100.00
12626;BME280;6378;42.684;23.372;2023-08-24T04:10:43;95250.66;;;21.97;100.00
12626;BME280;6378;42.684;23.372;2023-08-24T04:13:09;95250.38;;;21.88;100.00
12626;BME280;6378;42.684;23.372;2023-08-24T04:15:34;95241.91;;;21.76;100.00
12626;BME280;6378;42.684;23.372;2023-08-24T04:17:59;95250.28;;;21.95;100.00
12626;BME280;6378;42.684;23.372;2023-08-24T04:20:25;95244.81;;;21.92;100.00
12626;BME280;6378;42.684;23.372;2023-08-24T04:22:50;95241.13;;;22.06;100.00
12626;BME280;6378;42.684;23.372;2023-08-24T04:25:16;95243.72;;;22.16;100.00
12626;BME280;6378;42.684;23.372;2023-08-24T04:27:41;95242.47;;;22.21;100.00
12626;BME280;6378;42.684;23.372;2023-08-24T04:30:07;95227.16;;;21.96;100.00
12626;BME280;6378;42.684;23.372;2023-08-24T04:32:36;95255.06;;;22.18;100.00
12626;BME280;6378;42.684;23.372;2023-08-24T04:35:02;95248.31;;;22.23;100.00
12626;BME280;6378;42.684;23.372;2023-08-24T04:37:28;95257.81;;;22.41;100.00
12626;BME280;6378;42.684;23.372;2023-08-24T04:39:53;95252.34;;;22.41;100.00
12626;BME280;6378;42.684;23.372;2023-08-24T04:42:19;95261.13;;;22.56;100.00
12626;BME280;6378;42.684;23.372;2023-08-24T04:44:44;95250.97;;;22.53;100.00
12626;BME280;6378;42.684;23.372;2023-08-24T04:47:09;95257.91;;;22.38;100.00
12626;BME280;6378;42.684;23.372;2023-08-24T04:49:35;95247.97;;;22.44;100.00
12626;BME280;6378;42.684;23.372;2023-08-24T04:52:01;95249.84;;;22.51;100.00
12626;BME280;6378;42.684;23.372;2023-08-24T04:54:27;95253.53;;;22.40;100.00
12626;BME280;6378;42.684;23.372;2023-08-24T04:56:52;95252.97;;;22.26;100.00
12626;BME280;6378;42.684;23.372;2023-08-24T04:59:17;95246.91;;;22.38;100.00
12626;BME280;6378;42.684;23.372;2023-08-24T05:01:43;95256.44;;;22.53;100.00
12626;BME280;6378;42.684;23.372;2023-08-24T05:04:08;95254.78;;;22.59;100.00
12626;BME280;6378;42.684;23.372;2023-08-24T05:06:33;95260.16;;;22.66;100.00
12626;BME280;6378;42.684;23.372;2023-08-24T05:08:59;95263.50;;;22.54;100.00
12626;BME280;6378;42.684;23.372;2023-08-24T05:11:27;95267.72;;;22.35;100.00
12626;BME280;6378;42.684;23.372;2023-08-24T05:13:55;95249.31;;;22.59;100.00
12626;BME280;6378;42.684;23.372;2023-08-24T05:16:21;95266.84;;;23.31;100.00
12626;BME280;6378;42.684;23.372;2023-08-24T05:18:46;95272.63;;;23.37;100.00
12626;BME280;6378;42.684;23.372;2023-08-24T05:21:11;95269.69;;;23.28;100.00
12626;BME280;6378;42.684;23.372;2023-08-24T05:23:37;95239.94;;;23.03;100.00
12626;BME280;6378;42.684;23.372;2023-08-24T05:26:03;95273.97;;;23.29;100.00
12626;BME280;6378;42.684;23.372;2023-08-24T05:28:29;95277.34;;;23.17;100.00
12626;BME280;6378;42.684;23.372;2023-08-24T05:30:55;95271.41;;;22.99;100.00
12626;BME280;6378;42.684;23.372;2023-08-24T05:33:22;95273.31;;;22.78;100.00
12626;BME280;6378;42.684;23.372;2023-08-24T05:35:48;95272.66;;;22.94;100.00
12626;BME280;6378;42.684;23.372;2023-08-24T05:38:14;95271.75;;;23.01;100.00
12626;BME280;6378;42.684;23.372;2023-08-24T05:40:40;95270.56;;;23.02;100.00
12626;BME280;6378;42.684;23.372;2023-08-24T05:43:08;95274.84;;;23.03;100.00
12626;BME280;6378;42.684;23.372;2023-08-24T05:45:33;95271.28;;;23.06;100.00
12626;BME280;6378;42.684;23.372;2023-08-24T05:47:58;95273.84;;;23.36;100.00
12626;BME280;6378;42.684;23.372;2023-08-24T05:50:24;95284.69;;;23.43;100.00
12626;BME280;6378;42.684;23.372;2023-08-24T05:52:50;95283.75;;;23.53;100.00
12626;BME280;6378;42.684;23.372;2023-08-24T05:55:15;95285.59;;;23.80;100.00
12626;BME280;6378;42.684;23.372;2023-08-24T05:57:41;95292.94;;;24.02;100.00
12626;BME280;6378;42.684;23.372;2023-08-24T06:00:07;95276.94;;;24.17;100.00
12626;BME280;6378;42.684;23.372;2023-08-24T06:02:35;95286.25;;;24.39;100.00
12626;BME280;6378;42.684;23.372;2023-08-24T06:05:01;95289.09;;;24.68;100.00
12626;BME280;6378;42.684;23.372;2023-08-24T06:07:26;95286.81;;;24.99;100.00
12626;BME280;6378;42.684;23.372;2023-08-24T06:09:52;95292.84;;;25.39;100.00
12626;BME280;6378;42.684;23.372;2023-08-24T06:12:18;95290.22;;;25.64;100.00
12626;BME280;6378;42.684;23.372;2023-08-24T06:14:43;95286.72;;;25.76;100.00
12626;BME280;6378;42.684;23.372;2023-08-24T06:17:08;95292.81;;;25.97;100.00
12626;BME280;6378;42.684;23.372;2023-08-24T06:19:34;95291.31;;;26.08;100.00
12626;BME280;6378;42.684;23.372;2023-08-24T06:21:59;95282.00;;;26.44;100.00
12626;BME280;6378;42.684;23.372;2023-08-24T06:24:24;95299.53;;;26.50;100.00
12626;BME280;6378;42.684;23.372;2023-08-24T06:26:50;95285.41;;;26.48;100.00
12626;BME280;6378;42.684;23.372;2023-08-24T06:29:15;95287.38;;;26.72;100.00
12626;BME280;6378;42.684;23.372;2023-08-24T06:31:40;95280.50;;;27.02;100.00
12626;BME280;6378;42.684;23.372;2023-08-24T06:34:06;95282.47;;;27.49;100.00
12626;BME280;6378;42.684;23.372;2023-08-24T06:36:31;95289.41;;;27.97;98.43
12626;BME280;6378;42.684;23.372;2023-08-24T06:38:57;95288.66;;;28.49;92.67
12626;BME280;6378;42.684;23.372;2023-08-24T06:41:24;95273.09;;;28.52;89.33
12626;BME280;6378;42.684;23.372;2023-08-24T06:43:49;95289.59;;;28.64;89.27
12626;BME280;6378;42.684;23.372;2023-08-24T06:46:14;95287.94;;;28.67;89.20
12626;BME280;6378;42.684;23.372;2023-08-24T06:48:40;95296.00;;;28.43;91.36
12626;BME280;6378;42.684;23.372;2023-08-24T06:51:09;95283.94;;;28.06;94.08
12626;BME280;6378;42.684;23.372;2023-08-24T06:53:34;95288.47;;;28.13;93.13
12626;BME280;6378;42.684;23.372;2023-08-24T06:56:00;95277.03;;;28.11;92.15
12626;BME280;6378;42.684;23.372;2023-08-24T06:58:25;95290.72;;;28.36;89.90
12626;BME280;6378;42.684;23.372;2023-08-24T07:00:51;95293.50;;;28.36;89.66
12626;BME280;6378;42.684;23.372;2023-08-24T07:03:17;95280.56;;;28.33;91.77
12626;BME280;6378;42.684;23.372;2023-08-24T07:05:43;95280.00;;;28.47;90.45
12626;BME280;6378;42.684;23.372;2023-08-24T07:08:09;95279.88;;;28.91;85.74
12626;BME280;6378;42.684;23.372;2023-08-24T07:10:34;95278.03;;;28.88;86.81
12626;BME280;6378;42.684;23.372;2023-08-24T07:13:00;95280.00;;;28.78;87.26
12626;BME280;6378;42.684;23.372;2023-08-24T07:15:25;95284.19;;;28.52;89.49
12626;BME280;6378;42.684;23.372;2023-08-24T07:17:50;95286.19;;;28.51;91.75
12626;BME280;6378;42.684;23.372;2023-08-24T07:20:16;95281.59;;;28.57;90.54
12626;BME280;6378;42.684;23.372;2023-08-24T07:22:41;95276.69;;;28.61;88.95
12626;BME280;6378;42.684;23.372;2023-08-24T07:25:07;95270.34;;;28.21;93.94
12626;BME280;6378;42.684;23.372;2023-08-24T07:27:33;95269.81;;;28.35;91.74
12626;BME280;6378;42.684;23.372;2023-08-24T07:29:59;95253.19;;;28.35;90.40
12626;BME280;6378;42.684;23.372;2023-08-24T07:32:26;95264.34;;;28.53;91.80
12626;BME280;6378;42.684;23.372;2023-08-24T07:34:52;95253.88;;;28.48;91.40
12626;BME280;6378;42.684;23.372;2023-08-24T07:37:17;95229.50;;;28.34;89.40
12626;BME280;6378;42.684;23.372;2023-08-24T07:39:43;95248.34;;;28.48;91.17
12626;BME280;6378;42.684;23.372;2023-08-24T07:42:08;95277.06;;;28.72;90.40
12626;BME280;6378;42.684;23.372;2023-08-24T07:44:36;95279.53;;;28.79;89.03
12626;BME280;6378;42.684;23.372;2023-08-24T07:47:01;95275.75;;;29.04;87.39
12626;BME280;6378;42.684;23.372;2023-08-24T07:49:27;95213.22;;;28.94;81.24
12626;BME280;6378;42.684;23.372;2023-08-24T07:51:52;95275.50;;;29.48;82.27
12626;BME280;6378;42.684;23.372;2023-08-24T07:54:18;95279.69;;;29.61;78.90
12626;BME280;6378;42.684;23.372;2023-08-24T07:56:43;95264.53;;;29.81;75.85
12626;BME280;6378;42.684;23.372;2023-08-24T07:59:09;95254.03;;;30.03;75.22
12626;BME280;6378;42.684;23.372;2023-08-24T08:01:34;95269.66;;;30.42;71.27
12626;BME280;6378;42.684;23.372;2023-08-24T08:04:00;95211.75;;;30.08;70.25
12626;BME280;6378;42.684;23.372;2023-08-24T08:06:25;95240.38;;;30.32;69.00
12626;BME280;6378;42.684;23.372;2023-08-24T08:08:52;95255.91;;;30.48;67.81
12626;BME280;6378;42.684;23.372;2023-08-24T08:11:18;95274.72;;;30.86;66.98
12626;BME280;6378;42.684;23.372;2023-08-24T08:13:43;95254.50;;;30.85;65.88
12626;BME280;6378;42.684;23.372;2023-08-24T08:16:09;95267.63;;;30.85;64.58
12626;BME280;6378;42.684;23.372;2023-08-24T08:18:36;95249.44;;;30.75;64.84
12626;BME280;6378;42.684;23.372;2023-08-24T08:21:01;95266.44;;;31.01;64.47
12626;BME280;6378;42.684;23.372;2023-08-24T08:23:33;95251.50;;;30.98;62.17
12626;BME280;6378;42.684;23.372;2023-08-24T08:25:58;95215.34;;;30.98;61.44
12626;BME280;6378;42.684;23.372;2023-08-24T08:28:24;95258.28;;;31.45;60.18
12626;BME280;6378;42.684;23.372;2023-08-24T08:30:49;95254.50;;;31.57;58.63
12626;BME280;6378;42.684;23.372;2023-08-24T08:33:14;95251.81;;;31.62;57.14
12626;BME280;6378;42.684;23.372;2023-08-24T08:35:40;95248.78;;;32.04;55.58
12626;BME280;6378;42.684;23.372;2023-08-24T08:38:06;95256.69;;;32.35;55.25
12626;BME280;6378;42.684;23.372;2023-08-24T08:40:37;95254.47;;;32.24;54.31
12626;BME280;6378;42.684;23.372;2023-08-24T08:43:03;95228.53;;;31.74;51.73
12626;BME280;6378;42.684;23.372;2023-08-24T08:45:29;95226.81;;;31.53;53.98
12626;BME280;6378;42.684;23.372;2023-08-24T08:47:59;95224.09;;;31.68;53.77
12626;BME280;6378;42.684;23.372;2023-08-24T08:50:25;95236.47;;;31.96;52.08
12626;BME280;6378;42.684;23.372;2023-08-24T08:52:50;95219.19;;;31.77;52.39
12626;BME280;6378;42.684;23.372;2023-08-24T08:55:17;95232.44;;;31.82;52.65
12626;BME280;6378;42.684;23.372;2023-08-24T08:57:42;95210.19;;;31.97;52.41
12626;BME280;6378;42.684;23.372;2023-08-24T09:00:10;95225.44;;;32.31;51.98
12626;BME280;6378;42.684;23.372;2023-08-24T09:02:39;95223.31;;;32.41;51.69
12626;BME280;6378;42.684;23.372;2023-08-24T09:05:05;95209.63;;;32.22;50.63
12626;BME280;6378;42.684;23.372;2023-08-24T09:07:32;95215.56;;;32.30;52.02
12626;BME280;6378;42.684;23.372;2023-08-24T09:09:59;95213.75;;;32.62;50.02
12626;BME280;6378;42.684;23.372;2023-08-24T09:12:25;95206.38;;;32.94;50.12
12626;BME280;6378;42.684;23.372;2023-08-24T09:14:50;95212.84;;;32.85;47.57
12626;BME280;6378;42.684;23.372;2023-08-24T09:17:20;95199.81;;;32.97;47.72
12626;BME280;6378;42.684;23.372;2023-08-24T09:19:46;95176.88;;;32.67;47.43
12626;BME280;6378;42.684;23.372;2023-08-24T09:22:14;95180.06;;;32.80;48.19
12626;BME280;6378;42.684;23.372;2023-08-24T09:24:40;95142.03;;;32.77;47.10
12626;BME280;6378;42.684;23.372;2023-08-24T09:27:16;95187.81;;;33.11;46.58
12626;BME280;6378;42.684;23.372;2023-08-24T09:29:42;95161.88;;;33.05;46.73
12626;BME280;6378;42.684;23.372;2023-08-24T09:32:08;95163.56;;;32.97;45.47
12626;BME280;6378;42.684;23.372;2023-08-24T09:34:36;95175.84;;;33.25;45.74
12626;BME280;6378;42.684;23.372;2023-08-24T09:37:02;95178.84;;;33.22;44.63
12626;BME280;6378;42.684;23.372;2023-08-24T09:39:29;95175.50;;;33.18;44.93
12626;BME280;6378;42.684;23.372;2023-08-24T09:42:00;95145.59;;;32.98;45.18
12626;BME280;6378;42.684;23.372;2023-08-24T09:44:26;95173.13;;;33.31;43.72
12626;BME280;6378;42.684;23.372;2023-08-24T09:46:52;95135.22;;;33.24;44.11
12626;BME280;6378;42.684;23.372;2023-08-24T09:49:19;95153.53;;;33.51;43.80
12626;BME280;6378;42.684;23.372;2023-08-24T09:51:45;95160.22;;;33.85;44.50
12626;BME280;6378;42.684;23.372;2023-08-24T09:54:11;95155.84;;;33.78;42.62
12626;BME280;6378;42.684;23.372;2023-08-24T09:56:39;95145.22;;;33.82;42.03
12626;BME280;6378;42.684;23.372;2023-08-24T09:59:16;95144.91;;;34.06;40.59
12626;BME280;6378;42.684;23.372;2023-08-24T10:01:46;95148.47;;;34.07;41.13
12626;BME280;6378;42.684;23.372;2023-08-24T10:04:14;95134.22;;;33.73;41.38
12626;BME280;6378;42.684;23.372;2023-08-24T10:06:40;95146.75;;;34.15;39.95
12626;BME280;6378;42.684;23.372;2023-08-24T10:09:19;95135.97;;;34.33;40.14
12626;BME280;6378;42.684;23.372;2023-08-24T10:11:52;95149.44;;;34.72;39.37
12626;BME280;6378;42.684;23.372;2023-08-24T10:14:43;95126.88;;;34.87;38.27
12626;BME280;6378;42.684;23.372;2023-08-24T10:17:10;95132.75;;;34.89;37.80
12626;BME280;6378;42.684;23.372;2023-08-24T10:19:36;95128.25;;;35.08;38.41
12626;BME280;6378;42.684;23.372;2023-08-24T10:22:02;95132.16;;;35.44;37.11
12626;BME280;6378;42.684;23.372;2023-08-24T10:24:29;95130.47;;;35.80;35.88
12626;BME280;6378;42.684;23.372;2023-08-24T10:26:55;95146.25;;;35.99;34.67
12626;BME280;6378;42.684;23.372;2023-08-24T10:29:22;95130.50;;;36.13;34.69
12626;BME280;6378;42.684;23.372;2023-08-24T10:31:48;95130.47;;;36.35;33.96
12626;BME280;6378;42.684;23.372;2023-08-24T10:34:15;95117.25;;;35.97;34.32
12626;BME280;6378;42.684;23.372;2023-08-24T10:36:41;95126.06;;;35.45;35.53
12626;BME280;6378;42.684;23.372;2023-08-24T10:39:06;95119.47;;;35.43;35.44
12626;BME280;6378;42.684;23.372;2023-08-24T10:41:47;95119.88;;;35.19;36.10
12626;BME280;6378;42.684;23.372;2023-08-24T10:44:44;95117.97;;;34.34;37.57
12626;BME280;6378;42.684;23.372;2023-08-24T10:49:32;95126.25;;;33.92;39.79
12626;BME280;6378;42.684;23.372;2023-08-24T10:51:57;95105.72;;;33.38;41.73
12626;BME280;6378;42.684;23.372;2023-08-24T10:54:32;95123.28;;;32.98;42.31
12626;BME280;6378;42.684;23.372;2023-08-24T10:56:57;95123.19;;;32.72;44.05
12626;BME280;6378;42.684;23.372;2023-08-24T10:59:34;95115.22;;;32.45;45.82
12626;BME280;6378;42.684;23.372;2023-08-24T11:01:59;95112.69;;;32.47;48.67
12626;BME280;6378;42.684;23.372;2023-08-24T11:04:26;95114.03;;;32.16;52.83
12626;BME280;6378;42.684;23.372;2023-08-24T11:06:54;95116.72;;;31.61;52.76
12626;BME280;6378;42.684;23.372;2023-08-24T11:09:20;95116.31;;;31.01;52.63
12626;BME280;6378;42.684;23.372;2023-08-24T11:11:55;95114.66;;;30.94;54.66
12626;BME280;6378;42.684;23.372;2023-08-24T11:14:22;95097.03;;;30.97;56.06
12626;BME280;6378;42.684;23.372;2023-08-24T11:16:48;95100.28;;;30.95;57.09
12626;BME280;6378;42.684;23.372;2023-08-24T11:19:15;95104.63;;;30.96;57.39
12626;BME280;6378;42.684;23.372;2023-08-24T11:21:46;95097.97;;;30.94;57.51
12626;BME280;6378;42.684;23.372;2023-08-24T11:24:15;95085.03;;;30.91;57.37
12626;BME280;6378;42.684;23.372;2023-08-24T11:26:47;95098.09;;;30.99;56.65
12626;BME280;6378;42.684;23.372;2023-08-24T11:29:13;95100.75;;;30.94;58.11
12626;BME280;6378;42.684;23.372;2023-08-24T11:31:39;95093.66;;;30.78;59.59
12626;BME280;6378;42.684;23.372;2023-08-24T11:34:05;95105.88;;;30.72;60.41
12626;BME280;6378;42.684;23.372;2023-08-24T11:36:45;95108.66;;;30.72;61.43
12626;BME280;6378;42.684;23.372;2023-08-24T11:39:16;95106.38;;;30.46;65.02
12626;BME280;6378;42.684;23.372;2023-08-24T11:41:43;95103.63;;;30.13;70.42
12626;BME280;6378;42.684;23.372;2023-08-24T11:44:10;95081.06;;;29.79;72.21
12626;BME280;6378;42.684;23.372;2023-08-24T11:46:36;95097.28;;;30.13;73.50
12626;BME280;6378;42.684;23.372;2023-08-24T11:49:04;95098.72;;;30.08;73.34
12626;BME280;6378;42.684;23.372;2023-08-24T11:51:30;95098.91;;;29.87;75.37
12626;BME280;6378;42.684;23.372;2023-08-24T11:53:59;95103.88;;;29.83;75.65
12626;BME280;6378;42.684;23.372;2023-08-24T11:56:24;95093.91;;;29.76;76.04
12626;BME280;6378;42.684;23.372;2023-08-24T11:58:50;95095.41;;;29.77;77.73
12626;BME280;6378;42.684;23.372;2023-08-24T12:01:18;95083.53;;;29.86;79.08
12626;BME280;6378;42.684;23.372;2023-08-24T12:03:44;95080.75;;;29.86;77.81
12626;BME280;6378;42.684;23.372;2023-08-24T12:06:16;95084.59;;;29.88;81.29
12626;BME280;6378;42.684;23.372;2023-08-24T12:08:45;95075.66;;;29.84;79.95
12626;BME280;6378;42.684;23.372;2023-08-24T12:11:15;95069.06;;;29.73;77.85
12626;BME280;6378;42.684;23.372;2023-08-24T12:13:49;95066.00;;;29.70;75.48
12626;BME280;6378;42.684;23.372;2023-08-24T12:16:16;95055.28;;;29.54;76.95
12626;BME280;6378;42.684;23.372;2023-08-24T12:18:52;95048.50;;;29.55;74.89
12626;BME280;6378;42.684;23.372;2023-08-24T12:21:18;95044.75;;;29.67;76.52
12626;BME280;6378;42.684;23.372;2023-08-24T12:23:45;95048.09;;;29.81;80.92
12626;BME280;6378;42.684;23.372;2023-08-24T12:26:17;95047.28;;;29.89;78.09
12626;BME280;6378;42.684;23.372;2023-08-24T12:28:43;95061.53;;;30.06;77.37
12626;BME280;6378;42.684;23.372;2023-08-24T12:31:08;95073.19;;;30.19;76.75
12626;BME280;6378;42.684;23.372;2023-08-24T12:33:34;95064.16;;;30.33;70.46
12626;BME280;6378;42.684;23.372;2023-08-24T12:35:59;95074.75;;;30.44;67.04
12626;BME280;6378;42.684;23.372;2023-08-24T12:38:26;95079.94;;;30.51;64.93
12626;BME280;6378;42.684;23.372;2023-08-24T12:40:52;95072.38;;;30.51;65.32
12626;BME280;6378;42.684;23.372;2023-08-24T12:43:18;95060.81;;;30.53;66.14
12626;BME280;6378;42.684;23.372;2023-08-24T12:45:43;95089.44;;;30.83;62.25
12626;BME280;6378;42.684;23.372;2023-08-24T12:48:10;95089.44;;;30.83;62.68
12626;BME280;6378;42.684;23.372;2023-08-24T12:50:36;95098.47;;;30.92;66.21
12626;BME280;6378;42.684;23.372;2023-08-24T12:53:02;95108.25;;;30.88;58.17
12626;BME280;6378;42.684;23.372;2023-08-24T12:55:28;95093.06;;;30.50;61.90
12626;BME280;6378;42.684;23.372;2023-08-24T12:57:54;95092.47;;;30.46;63.34
12626;BME280;6378;42.684;23.372;2023-08-24T13:00:19;95105.81;;;30.33;65.56
12626;BME280;6378;42.684;23.372;2023-08-24T13:02:45;95127.53;;;30.11;65.90